Time;durP1;ratioP1;P1;durP2;ratioP2;P2;SDS_P1;SDS_P2;PMS_P1;PMS_P2;Temp;Humidity;BMP_temperature;BMP_pressure;BME280_temperature;BME280_humidity;BME280_pressure;Samples;Min_cycle;Max_cycle;Signal;HPM_P1;HPM_P2
2023/03/19 00:00:33;;;;;;;0.50;0.50;;;;;;;3.66;59.76;95872.72;5111215;28;20465;-53
2023/03/19 00:03:01;;;;;;;0.30;0.30;;;;;;;4.08;60.85;95873.78;5111488;28;20887;-53
2023/03/19 00:05:31;;;;;;;0.40;0.30;;;;;;;4.27;60.00;95870.22;5111366;28;20427;-53
2023/03/19 00:08:00;;;;;;;0.30;0.20;;;;;;;4.49;60.88;95870.59;5111044;28;20965;-53
2023/03/19 00:10:28;;;;;;;0.33;0.27;;;;;;;4.22;60.33;95867.44;5111046;28;20431;-53
2023/03/19 00:12:56;;;;;;;0.30;0.20;;;;;;;4.70;60.73;95872.00;5111296;28;20467;-53
2023/03/19 00:15:25;;;;;;;0.30;0.30;;;;;;;4.84;59.44;95876.06;5111494;28;20507;-53
2023/03/19 00:17:55;;;;;;;1.23;0.60;;;;;;;4.82;59.89;95868.41;5110990;28;20435;-52
2023/03/19 00:20:23;;;;;;;1.17;1.17;;;;;;;5.03;62.41;95869.78;5111436;28;20430;-52
2023/03/19 00:22:53;;;;;;;1.47;0.57;;;;;;;5.05;64.11;95851.97;5114481;28;20559;-53
2023/03/19 00:25:21;;;;;;;1.07;0.70;;;;;;;4.11;58.02;95859.44;5114931;28;20507;-52
2023/03/19 00:27:51;;;;;;;0.53;0.40;;;;;;;3.37;59.73;95841.06;5115006;28;20873;-52
2023/03/19 00:30:20;;;;;;;6.13;1.50;;;;;;;3.88;65.09;95833.00;5114825;28;20500;-52
2023/03/19 00:32:48;;;;;;;0.30;0.20;;;;;;;4.09;61.78;95846.56;5114671;28;20434;-52
2023/03/19 00:35:17;;;;;;;0.33;0.20;;;;;;;4.34;60.14;95841.28;5114478;28;20956;-52
2023/03/19 00:37:45;;;;;;;0.80;0.50;;;;;;;4.54;62.69;95844.50;5114354;28;20511;-53
2023/03/19 00:40:15;;;;;;;0.50;0.30;;;;;;;4.80;63.36;95835.50;5114296;28;20467;-53
2023/03/19 00:42:43;;;;;;;0.80;0.37;;;;;;;4.93;61.78;95830.88;5114459;28;20936;-53
2023/03/19 00:45:13;;;;;;;0.30;0.20;;;;;;;5.17;61.93;95826.53;5114018;28;20428;-53
2023/03/19 00:47:41;;;;;;;0.50;0.30;;;;;;;5.24;64.75;95829.88;5114446;28;20423;-53
2023/03/19 00:50:11;;;;;;;0.57;0.57;;;;;;;5.04;59.47;95809.13;5114009;28;20460;-53
2023/03/19 00:52:39;;;;;;;0.30;0.27;;;;;;;4.43;56.99;95834.72;5114019;28;20425;-53
2023/03/19 00:55:09;;;;;;;0.30;0.20;;;;;;;4.35;58.59;95822.66;5114444;28;20428;-53
2023/03/19 00:57:38;;;;;;;0.57;0.57;;;;;;;4.54;58.24;95833.19;5114049;28;20780;-53
2023/03/19 01:00:09;;;;;;;0.40;0.20;;;;;;;4.07;58.74;95829.44;5114000;28;21012;-53
2023/03/19 01:02:37;;;;;;;2.53;1.90;;;;;;;4.03;58.87;95825.63;5114002;28;20452;-53
2023/03/19 01:05:07;;;;;;;0.40;0.33;;;;;;;4.21;57.70;95823.03;5113558;28;20416;-53
2023/03/19 01:07:36;;;;;;;0.50;0.47;;;;;;;4.06;58.50;95819.94;5113652;28;20903;-53
2023/03/19 01:10:05;;;;;;;0.60;0.30;;;;;;;4.77;61.06;95818.38;5113731;28;20798;-53
2023/03/19 01:12:34;;;;;;;2.93;0.40;;;;;;;5.03;59.13;95815.41;5114354;28;20463;-53
2023/03/19 01:15:05;;;;;;;0.30;0.20;;;;;;;5.08;60.38;95807.66;5113421;28;21032;-53
2023/03/19 01:17:34;;;;;;;0.30;0.20;;;;;;;4.91;58.44;95811.94;5113944;28;20417;-53
2023/03/19 01:20:03;;;;;;;0.30;0.20;;;;;;;4.89;58.76;95806.09;5113338;28;20510;-53
2023/03/19 01:22:31;;;;;;;0.30;0.20;;;;;;;5.03;59.27;95804.13;5113025;28;20442;-53
2023/03/19 01:25:02;;;;;;;0.40;0.40;;;;;;;5.19;58.37;95797.44;5113390;28;20473;-53
2023/03/19 01:27:31;;;;;;;0.40;0.20;;;;;;;5.11;56.89;95791.44;5113487;28;20519;-53
2023/03/19 01:30:00;;;;;;;0.50;0.50;;;;;;;5.06;56.39;95793.13;5113401;28;20416;-53
2023/03/19 01:32:30;;;;;;;0.30;0.20;;;;;;;4.96;56.23;95783.16;5112602;28;20535;-53
2023/03/19 01:34:58;;;;;;;0.33;0.23;;;;;;;4.46;55.67;95689.94;5112336;28;20471;-53
2023/03/19 01:37:27;;;;;;;0.90;0.27;;;;;;;5.22;56.68;95796.97;5112822;28;20433;-53
2023/03/19 01:39:55;;;;;;;0.40;0.40;;;;;;;5.21;55.70;95793.56;5112059;28;20426;-53
2023/03/19 01:42:23;;;;;;;0.30;0.20;;;;;;;4.73;55.88;95800.66;5113226;28;20445;-53
2023/03/19 01:44:51;;;;;;;0.30;0.20;;;;;;;4.99;56.03;95789.81;5113100;28;20531;-53
2023/03/19 01:47:29;;;;;;;0.60;0.60;;;;;;;4.52;56.21;95780.91;5112373;28;20515;-53
2023/03/19 01:49:59;;;;;;;0.40;0.40;;;;;;;3.77;58.35;95808.28;5112888;28;20464;-53
2023/03/19 01:52:32;;;;;;;0.40;0.30;;;;;;;4.09;58.50;95798.53;5113317;28;20446;-53
2023/03/19 01:55:02;;;;;;;0.97;0.97;;;;;;;2.95;59.96;95805.84;5112946;28;20475;-53
2023/03/19 01:57:32;;;;;;;0.50;0.50;;;;;;;2.53;61.26;95808.03;5111255;28;20459;-53
2023/03/19 02:00:04;;;;;;;0.40;0.30;;;;;;;2.88;61.46;95815.56;5112129;28;20924;-53
2023/03/19 02:02:34;;;;;;;0.30;0.20;;;;;;;3.48;59.99;95809.75;5111947;28;20492;-53
2023/03/19 02:05:08;;;;;;;0.70;0.70;;;;;;;3.37;59.76;95813.03;5111579;28;20919;-53
2023/03/19 02:07:38;;;;;;;0.30;0.20;;;;;;;2.69;61.50;95817.25;5112618;28;20495;-53
2023/03/19 02:10:10;;;;;;;0.40;0.30;;;;;;;2.44;62.16;95830.22;5112899;28;20442;-53
2023/03/19 02:12:38;;;;;;;0.30;0.30;;;;;;;2.47;62.98;95832.44;5112816;28;20466;-53
2023/03/19 02:15:08;;;;;;;0.30;0.30;;;;;;;3.16;60.97;95821.25;5112626;28;20878;-53
2023/03/19 02:17:36;;;;;;;0.40;0.40;;;;;;;3.84;58.94;95828.19;5112372;28;20440;-53
2023/03/19 02:20:12;;;;;;;0.30;0.20;;;;;;;4.16;57.74;95791.41;5112717;28;20481;-53
2023/03/19 02:22:47;;;;;;;0.50;0.50;;;;;;;4.06;57.99;95826.00;5112261;28;20472;-53
2023/03/19 02:25:22;;;;;;;0.47;0.30;;;;;;;3.96;57.84;95825.69;5112251;28;20469;-53
2023/03/19 02:27:52;;;;;;;0.40;0.40;;;;;;;4.06;57.86;95830.44;5112322;28;20518;-53
2023/03/19 02:30:23;;;;;;;0.30;0.20;;;;;;;3.97;58.39;95827.31;5111347;28;20435;-53
2023/03/19 02:32:51;;;;;;;0.40;0.40;;;;;;;3.96;58.06;95824.88;5111977;28;20427;-54
2023/03/19 02:35:20;;;;;;;0.30;0.20;;;;;;;4.17;57.71;95832.38;5111273;28;20478;-54
2023/03/19 02:37:48;;;;;;;0.30;0.30;;;;;;;3.67;58.93;95753.75;5111979;28;20424;-53
2023/03/19 02:40:22;;;;;;;0.40;0.40;;;;;;;4.32;58.88;95836.25;5112108;28;20497;-54
2023/03/19 02:42:52;;;;;;;0.40;0.30;;;;;;;4.21;57.55;95823.03;5111962;28;20474;-53
2023/03/19 02:45:20;;;;;;;0.60;0.60;;;;;;;4.17;57.80;95832.38;5110853;28;20448;-53
2023/03/19 02:47:48;;;;;;;0.30;0.20;;;;;;;4.22;57.68;95835.13;5111829;28;20428;-53
2023/03/19 02:50:17;;;;;;;0.43;0.30;;;;;;;4.20;57.42;95837.19;5111768;28;20431;-53
2023/03/19 02:52:45;;;;;;;0.30;0.20;;;;;;;4.26;56.94;95831.84;5111659;28;20431;-53
2023/03/19 02:55:13;;;;;;;0.40;0.20;;;;;;;4.18;57.76;95833.94;5110728;28;20517;-53
2023/03/19 02:57:41;;;;;;;0.50;0.40;;;;;;;4.06;58.08;95827.81;5110779;28;20499;-54
2023/03/19 03:00:13;;;;;;;0.70;0.70;;;;;;;4.02;57.68;95808.28;5111931;28;20917;-53
2023/03/19 03:02:41;;;;;;;0.30;0.20;;;;;;;4.18;57.60;95829.50;5111970;28;20509;-53
2023/03/19 03:05:10;;;;;;;0.40;0.40;;;;;;;3.93;57.83;95791.22;5111810;28;20442;-53
2023/03/19 03:07:39;;;;;;;0.53;0.50;;;;;;;2.65;59.79;95802.19;5110461;28;20434;-53
2023/03/19 03:10:08;;;;;;;0.30;0.20;;;;;;;3.13;59.98;95842.63;5111646;28;20443;-54
2023/03/19 03:12:37;;;;;;;0.53;0.47;;;;;;;3.23;59.84;95845.59;5111683;28;20434;-54
2023/03/19 03:15:07;;;;;;;0.57;0.30;;;;;;;3.34;59.16;95834.41;5111714;28;20555;-54
2023/03/19 03:17:38;;;;;;;0.40;0.30;;;;;;;3.58;58.71;95841.53;5110817;28;20770;-54
2023/03/19 03:20:10;;;;;;;0.37;0.30;;;;;;;3.50;58.82;95844.41;5111356;28;20445;-54
2023/03/19 03:22:38;;;;;;;0.50;0.50;;;;;;;3.12;59.37;95826.09;5110646;28;20468;-54
2023/03/19 03:25:08;;;;;;;1.17;0.27;;;;;;;3.72;58.40;95848.25;5110450;28;20947;-54
2023/03/19 03:27:37;;;;;;;0.30;0.20;;;;;;;3.72;58.63;95871.84;5110573;28;20961;-54
2023/03/19 03:30:08;;;;;;;1.80;0.73;;;;;;;3.74;58.45;95851.47;5111355;28;20428;-54
2023/03/19 03:32:39;;;;;;;0.77;0.77;;;;;;;3.85;58.59;95858.66;5111131;28;20447;-54
2023/03/19 03:35:08;;;;;;;0.67;0.40;;;;;;;4.03;58.64;95849.22;5111373;28;20558;-54
2023/03/19 03:37:37;;;;;;;0.73;0.73;;;;;;;3.88;58.73;95809.41;5111320;28;20424;-54
2023/03/19 03:40:07;;;;;;;0.77;0.77;;;;;;;4.13;59.60;95844.28;5110842;28;20500;-54
2023/03/19 03:42:36;;;;;;;0.40;0.37;;;;;;;4.17;60.44;95845.47;5110097;28;20436;-54
2023/03/19 03:45:06;;;;;;;1.50;0.50;;;;;;;4.19;60.10;95848.69;5111493;28;20436;-54
2023/03/19 03:47:34;;;;;;;0.30;0.20;;;;;;;4.18;61.10;95841.81;5111594;28;20423;-54
2023/03/19 03:50:05;;;;;;;0.43;0.40;;;;;;;4.20;61.52;95839.81;5111546;28;20438;-54
2023/03/19 03:52:33;;;;;;;0.53;0.53;;;;;;;4.00;63.59;95815.59;5111531;28;20481;-54
2023/03/19 03:55:02;;;;;;;0.47;0.30;;;;;;;4.35;62.50;95840.25;5111098;28;20565;-54
2023/03/19 03:57:30;;;;;;;0.30;0.30;;;;;;;4.39;60.03;95842.22;5113489;28;20997;-54
2023/03/19 03:59:58;;;;;;;0.40;0.20;;;;;;;4.41;59.17;95845.44;5115128;28;20428;-54
2023/03/19 04:02:27;;;;;;;0.40;0.30;;;;;;;4.29;58.11;95846.38;5114787;28;20519;-54
2023/03/19 04:04:56;;;;;;;0.30;0.20;;;;;;;4.17;59.29;95853.34;5114895;28;20427;-54
2023/03/19 04:07:25;;;;;;;1.07;1.07;;;;;;;3.41;59.32;95853.53;5114586;28;20471;-54
2023/03/19 04:09:54;;;;;;;0.80;0.30;;;;;;;3.78;58.77;95862.34;5114087;28;20510;-54
2023/03/19 04:12:22;;;;;;;0.30;0.27;;;;;;;3.58;59.58;95870.34;5113388;28;20435;-54
2023/03/19 04:14:51;;;;;;;0.50;0.40;;;;;;;2.65;61.60;95872.84;5115093;28;20472;-54
2023/03/19 04:17:19;;;;;;;1.03;1.03;;;;;;;2.24;64.24;95888.81;5114636;28;20533;-54
2023/03/19 04:19:47;;;;;;;0.83;0.83;;;;;;;1.67;64.52;95894.66;5114655;28;20924;-54
2023/03/19 04:22:16;;;;;;;0.77;0.47;;;;;;;1.69;64.75;95892.66;5114324;28;20437;-54
2023/03/19 04:24:45;;;;;;;0.30;0.30;;;;;;;1.51;65.34;95874.16;5113589;28;20930;-54
2023/03/19 04:27:14;;;;;;;0.87;0.87;;;;;;;2.74;62.70;95901.19;5114589;28;20482;-53
2023/03/19 04:29:42;;;;;;;0.53;0.53;;;;;;;2.14;63.39;95904.94;5114645;28;20422;-54
2023/03/19 04:32:10;;;;;;;0.30;0.20;;;;;;;2.52;62.14;95886.75;5114935;28;20501;-54
2023/03/19 04:34:40;;;;;;;0.30;0.27;;;;;;;1.92;63.35;95880.00;5114726;28;20687;-54
2023/03/19 04:37:09;;;;;;;0.40;0.30;;;;;;;1.35;65.21;95905.84;5114603;28;20833;-54
2023/03/19 04:39:38;;;;;;;0.50;0.50;;;;;;;1.92;65.26;95927.06;5114860;28;20419;-54
2023/03/19 04:42:08;;;;;;;5.13;0.77;;;;;;;2.30;64.21;95927.25;5113456;28;20463;-54
2023/03/19 04:44:36;;;;;;;1.33;0.67;;;;;;;2.47;63.55;95923.19;5113688;28;20430;-54
2023/03/19 04:47:09;;;;;;;1.57;0.47;;;;;;;1.78;63.50;95811.25;5114824;28;20788;-54
2023/03/19 04:49:40;;;;;;;0.50;0.50;;;;;;;2.61;62.88;95927.38;5114249;28;20426;-54
2023/03/19 04:52:09;;;;;;;0.40;0.30;;;;;;;2.61;62.96;95929.22;5114162;28;20497;-54
2023/03/19 04:54:37;;;;;;;0.40;0.30;;;;;;;2.65;62.65;95935.63;5114215;28;20513;-53
2023/03/19 04:57:07;;;;;;;0.50;0.50;;;;;;;2.77;62.15;95941.84;5114197;28;20896;-53
2023/03/19 04:59:38;;;;;;;1.47;1.47;;;;;;;3.23;63.77;95934.66;5114146;28;20449;-54
2023/03/19 05:02:07;;;;;;;0.80;0.80;;;;;;;3.59;65.64;95929.59;5114003;28;20759;-54
2023/03/19 05:04:36;;;;;;;0.30;0.20;;;;;;;3.75;64.32;95931.72;5113869;28;20431;-54
2023/03/19 05:07:04;;;;;;;0.30;0.30;;;;;;;3.88;62.34;95933.47;5114005;28;20435;-54
2023/03/19 05:09:32;;;;;;;0.53;0.37;;;;;;;3.85;60.91;95934.69;5113992;28;20426;-54
2023/03/19 05:12:00;;;;;;;0.40;0.37;;;;;;;4.03;61.57;95933.97;5113821;28;20446;-54
2023/03/19 05:14:30;;;;;;;0.30;0.30;;;;;;;4.10;60.12;95937.34;5113337;28;20788;-54
2023/03/19 05:16:59;;;;;;;0.40;0.40;;;;;;;3.89;59.71;95937.72;5113775;28;20473;-54
2023/03/19 05:19:27;;;;;;;0.40;0.30;;;;;;;3.23;59.86;95850.81;5113441;28;20916;-54
2023/03/19 05:21:57;;;;;;;0.50;0.43;;;;;;;3.61;60.83;95937.28;5113405;28;20428;-53
2023/03/19 05:24:26;;;;;;;0.73;0.73;;;;;;;3.66;60.32;95935.63;5112710;28;20459;-53
2023/03/19 05:26:55;;;;;;;0.60;0.60;;;;;;;3.85;59.57;95929.44;5113178;28;20435;-54
2023/03/19 05:29:23;;;;;;;0.60;0.60;;;;;;;3.56;60.62;95935.28;5112967;28;20427;-54
2023/03/19 05:31:53;;;;;;;0.93;0.90;;;;;;;3.59;60.50;95934.84;5113598;28;20431;-54
2023/03/19 05:34:21;;;;;;;1.23;1.13;;;;;;;3.09;62.13;95935.69;5113531;28;20518;-53
2023/03/19 05:36:50;;;;;;;0.70;0.70;;;;;;;3.02;62.96;95935.72;5113303;28;20932;-54
2023/03/19 05:39:19;;;;;;;0.70;0.70;;;;;;;2.75;62.97;95873.19;5113720;28;20428;-54
2023/03/19 05:41:47;;;;;;;0.40;0.40;;;;;;;3.01;62.65;95930.72;5113354;28;20485;-55
2023/03/19 05:44:16;;;;;;;0.40;0.40;;;;;;;2.97;62.83;95934.72;5113397;28;20519;-54
2023/03/19 05:46:45;;;;;;;0.77;0.77;;;;;;;2.53;63.38;95941.47;5113232;28;20493;-53
2023/03/19 05:49:15;;;;;;;1.97;1.00;;;;;;;1.72;65.04;95856.47;5113012;28;20431;-53
2023/03/19 05:51:43;;;;;;;0.30;0.20;;;;;;;3.01;64.17;95943.81;5112876;28;20978;-54
2023/03/19 05:54:12;;;;;;;1.23;1.13;;;;;;;2.80;64.34;95941.44;5112957;28;20431;-55
2023/03/19 05:56:40;;;;;;;5.13;0.90;;;;;;;2.83;64.13;95912.25;5113070;28;20839;-54
2023/03/19 05:59:08;;;;;;;0.80;0.80;;;;;;;3.50;62.63;95928.25;5112897;28;20442;-55
2023/03/19 06:01:37;;;;;;;2.43;0.60;;;;;;;3.26;63.07;95943.91;5112634;28;20519;-54
2023/03/19 06:04:06;;;;;;;2.00;1.13;;;;;;;3.50;63.35;95953.66;5113246;28;20582;-54
2023/03/19 06:06:35;;;;;;;0.43;0.40;;;;;;;3.98;62.99;95949.53;5113091;28;20526;-54
2023/03/19 06:09:04;;;;;;;0.47;0.43;;;;;;;5.38;65.98;95933.81;5112246;28;20457;-55
2023/03/19 06:11:38;;;;;;;0.40;0.30;;;;;;;6.13;55.38;95945.53;5112745;28;20515;-54
2023/03/19 06:14:10;;;;;;;0.67;0.67;;;;;;;5.89;54.25;95864.16;5112495;28;20416;-55
2023/03/19 06:16:41;;;;;;;0.30;0.30;;;;;;;6.85;52.76;95917.19;5112583;28;20464;-55
2023/03/19 06:19:10;;;;;;;0.40;0.30;;;;;;;6.93;51.16;95866.78;5111914;28;20435;-55
2023/03/19 06:21:40;;;;;;;0.40;0.40;;;;;;;7.88;50.20;95938.22;5112684;28;20442;-54
2023/03/19 06:24:08;;;;;;;0.40;0.30;;;;;;;7.87;50.20;95939.28;5112248;28;20499;-55
2023/03/19 06:26:37;;;;;;;0.57;0.57;;;;;;;7.86;49.98;95940.28;5112799;28;20419;-53
2023/03/19 06:29:06;;;;;;;0.40;0.40;;;;;;;8.41;48.77;95946.56;5112479;28;20455;-54
2023/03/19 06:31:35;;;;;;;4.10;0.90;;;;;;;8.03;49.46;95934.00;5112424;28;20458;-54
2023/03/19 06:34:03;;;;;;;0.40;0.40;;;;;;;7.97;49.99;95944.72;5112263;28;20516;-54
2023/03/19 06:36:31;;;;;;;0.40;0.40;;;;;;;8.55;50.63;95952.31;5112167;28;21055;-54
2023/03/19 06:39:02;;;;;;;1.27;0.70;;;;;;;8.01;51.04;95949.28;5112435;28;20426;-54
2023/03/19 06:41:30;;;;;;;1.73;1.60;;;;;;;7.61;52.12;95951.97;5112157;28;20424;-54
2023/03/19 06:43:58;;;;;;;1.47;1.47;;;;;;;8.68;50.94;95952.78;5112073;28;20427;-53
2023/03/19 06:46:27;;;;;;;1.23;0.60;;;;;;;9.69;49.92;95951.47;5111828;28;20465;-54
2023/03/19 06:48:55;;;;;;;0.50;0.50;;;;;;;9.94;48.21;95949.09;5112204;28;20510;-54
2023/03/19 06:51:26;;;;;;;0.50;0.50;;;;;;;9.86;47.64;95946.91;5111271;28;20439;-53
2023/03/19 06:53:55;;;;;;;1.43;1.40;;;;;;;10.07;47.12;95947.91;5111848;28;20420;-54
2023/03/19 06:56:25;;;;;;;7.50;0.73;;;;;;;10.38;47.75;95941.88;5111744;28;20473;-53
2023/03/19 06:58:53;;;;;;;0.40;0.40;;;;;;;10.63;47.34;95944.72;5111800;28;20434;-53
2023/03/19 07:01:21;;;;;;;1.70;0.50;;;;;;;11.14;45.39;95939.75;5111800;28;21022;-53
2023/03/19 07:03:50;;;;;;;2.00;1.90;;;;;;;11.05;44.93;95934.13;5111924;28;20465;-54
2023/03/19 07:06:18;;;;;;;1.50;1.50;;;;;;;11.12;44.77;95942.66;5111746;28;20424;-53
2023/03/19 07:08:47;;;;;;;0.87;0.87;;;;;;;10.96;45.24;95933.00;5111669;28;20530;-54
2023/03/19 07:11:15;;;;;;;1.00;1.00;;;;;;;11.65;43.57;95923.00;5111811;28;20527;-55
2023/03/19 07:13:48;;;;;;;0.90;0.90;;;;;;;11.84;43.33;95921.47;5111715;28;20428;-55
2023/03/19 07:16:16;;;;;;;0.83;0.83;;;;;;;11.92;43.30;95923.63;5111536;28;20463;-56
2023/03/19 07:18:45;;;;;;;0.40;0.37;;;;;;;11.85;43.60;95916.97;5112088;28;20428;-55
2023/03/19 07:21:13;;;;;;;0.50;0.40;;;;;;;12.34;42.36;95917.31;5112293;28;20784;-56
2023/03/19 07:23:41;;;;;;;2.03;0.70;;;;;;;12.96;41.95;95895.72;5111374;28;20475;-56
2023/03/19 07:26:10;;;;;;;0.90;0.80;;;;;;;12.49;41.82;95910.16;5112034;28;20463;-55
2023/03/19 07:28:38;;;;;;;0.47;0.37;;;;;;;12.87;41.21;95907.97;5112055;28;20511;-55
2023/03/19 07:31:08;;;;;;;16.93;1.33;;;;;;;13.43;40.41;95892.69;5113044;28;20432;-56
2023/03/19 07:33:36;;;;;;;0.80;0.80;;;;;;;13.23;40.00;95907.63;5116053;28;20428;-56
2023/03/19 07:36:06;;;;;;;0.40;0.30;;;;;;;13.48;40.41;95888.13;5116195;28;20438;-56
2023/03/19 07:38:34;;;;;;;0.47;0.43;;;;;;;14.78;39.94;95904.34;5114576;28;20467;-57
2023/03/19 07:41:02;;;;;;;8.17;0.50;;;;;;;15.39;38.32;95895.69;5113313;28;20435;-57
2023/03/19 07:43:31;;;;;;;2.50;1.20;;;;;;;14.08;38.71;95848.88;5113288;28;20482;-58
2023/03/19 07:46:00;;;;;;;1.33;1.07;;;;;;;14.65;37.84;95886.28;5113428;28;20426;-58
2023/03/19 07:48:30;;;;;;;3.80;0.70;;;;;;;15.12;36.84;95889.06;5113312;28;20458;-59
2023/03/19 07:50:58;;;;;;;0.60;0.60;;;;;;;15.46;36.71;95858.75;5113634;28;20467;-59
2023/03/19 07:53:27;;;;;;;1.17;0.50;;;;;;;16.08;36.20;95879.06;5114186;28;20435;-60
2023/03/19 07:55:55;;;;;;;0.77;0.70;;;;;;;16.42;37.45;95872.34;5115502;28;20965;-59
2023/03/19 07:58:23;;;;;;;2.20;1.10;;;;;;;15.80;38.60;95875.44;5115645;28;20830;-59
2023/03/19 08:00:53;;;;;;;1.13;1.13;;;;;;;16.38;36.67;95871.34;5115540;28;20518;-59
2023/03/19 08:03:21;;;;;;;1.70;1.60;;;;;;;16.84;35.31;95870.63;5115728;28;20449;-59
2023/03/19 08:05:52;;;;;;;1.13;1.13;;;;;;;17.44;34.35;95871.34;5115330;28;20467;-59
2023/03/19 08:08:20;;;;;;;1.13;0.67;;;;;;;18.52;33.49;95853.47;5115206;28;20885;-59
2023/03/19 08:10:49;;;;;;;2.47;0.63;;;;;;;18.23;33.59;95867.25;5115382;28;20806;-59
2023/03/19 08:13:18;;;;;;;1.53;1.43;;;;;;;17.89;33.46;95862.38;5114988;28;20506;-59
2023/03/19 08:15:46;;;;;;;0.63;0.63;;;;;;;17.23;33.78;95864.81;5115827;28;20458;-59
2023/03/19 08:18:14;;;;;;;1.83;1.03;;;;;;;17.25;33.93;95868.78;5115496;28;20463;-58
2023/03/19 08:20:44;;;;;;;10.13;1.30;;;;;;;16.77;33.49;95862.19;5114946;28;20424;-58
2023/03/19 08:23:14;;;;;;;1.17;1.07;;;;;;;18.02;32.81;95860.75;5114886;28;20511;-57
2023/03/19 08:25:42;;;;;;;0.60;0.60;;;;;;;17.66;32.37;95864.22;5114808;28;20931;-57
2023/03/19 08:28:11;;;;;;;0.57;0.47;;;;;;;18.68;31.64;95851.97;5114807;28;20906;-57
2023/03/19 08:30:40;;;;;;;0.40;0.30;;;;;;;19.28;31.10;95855.75;5114903;28;20503;-57
2023/03/19 08:33:08;;;;;;;0.40;0.40;;;;;;;19.50;31.21;95852.22;5114853;28;20503;-57
2023/03/19 08:35:37;;;;;;;0.57;0.57;;;;;;;19.26;30.74;95847.19;5115077;28;20420;-56
2023/03/19 08:38:05;;;;;;;0.50;0.50;;;;;;;20.16;30.83;95832.97;5115044;28;20516;-56
2023/03/19 08:40:35;;;;;;;0.93;0.60;;;;;;;20.45;30.11;95847.72;5115293;28;20428;-56
2023/03/19 08:43:04;;;;;;;0.60;0.40;;;;;;;20.31;29.90;95841.75;5114117;28;20438;-56
2023/03/19 08:45:32;;;;;;;2.40;0.60;;;;;;;19.08;31.16;95842.06;5114669;28;20457;-56
2023/03/19 08:48:01;;;;;;;1.10;0.73;;;;;;;18.66;31.94;95817.38;5114808;28;20443;-56
2023/03/19 08:50:29;;;;;;;0.63;0.43;;;;;;;19.90;30.52;95831.41;5114460;28;20426;-56
2023/03/19 08:52:57;;;;;;;0.40;0.40;;;;;;;20.27;29.48;95834.28;5114699;28;20424;-56
2023/03/19 08:55:26;;;;;;;0.77;0.77;;;;;;;20.41;29.50;95827.94;5114646;28;20534;-56
2023/03/19 08:57:56;;;;;;;0.67;0.67;;;;;;;20.25;29.92;95824.94;5114707;28;20467;-55
2023/03/19 09:00:24;;;;;;;0.40;0.30;;;;;;;20.76;29.34;95818.69;5114455;28;20428;-54
2023/03/19 09:02:53;;;;;;;0.50;0.40;;;;;;;19.53;29.70;95830.84;5114076;28;20456;-54
2023/03/19 09:05:23;;;;;;;0.60;0.40;;;;;;;19.72;31.30;95822.53;5114347;28;20467;-55
2023/03/19 09:07:52;;;;;;;1.20;1.00;;;;;;;19.97;29.97;95815.56;5114339;28;20489;-54
2023/03/19 09:10:20;;;;;;;1.20;1.10;;;;;;;21.46;29.17;95816.22;5113989;28;20480;-55
2023/03/19 09:12:48;;;;;;;0.63;0.63;;;;;;;21.15;28.84;95801.47;5113738;28;20855;-54
2023/03/19 09:15:18;;;;;;;0.70;0.57;;;;;;;20.00;31.09;95812.25;5113817;28;20999;-55
2023/03/19 09:17:47;;;;;;;0.40;0.30;;;;;;;20.42;30.19;95800.69;5113939;28;20467;-55
2023/03/19 09:20:15;;;;;;;0.50;0.40;;;;;;;21.39;30.14;95804.34;5114285;28;20428;-55
2023/03/19 09:22:43;;;;;;;1.10;0.40;;;;;;;20.97;30.05;95798.03;5113739;28;20460;-55
2023/03/19 09:25:12;;;;;;;0.60;0.40;;;;;;;21.14;29.71;95786.41;5113645;28;20472;-54
2023/03/19 09:27:40;;;;;;;0.50;0.30;;;;;;;21.12;29.78;95785.94;5113669;28;20925;-55
2023/03/19 09:30:10;;;;;;;0.70;0.70;;;;;;;21.79;30.13;95772.34;5113540;28;20462;-55
2023/03/19 09:32:39;;;;;;;0.73;0.70;;;;;;;22.57;29.72;95779.47;5113543;28;20937;-55
2023/03/19 09:35:09;;;;;;;0.40;0.30;;;;;;;21.77;30.74;95777.31;5113584;28;20412;-55
2023/03/19 09:37:37;;;;;;;0.40;0.40;;;;;;;21.82;29.55;95769.00;5113571;28;20477;-55
2023/03/19 09:40:08;;;;;;;1.60;0.30;;;;;;;23.83;28.67;95757.66;5113346;28;20497;-55
2023/03/19 09:42:53;;;;;;;0.50;0.40;;;;;;;24.31;27.86;95747.84;5113172;28;20412;-55
2023/03/19 09:45:23;;;;;;;0.53;0.40;;;;;;;22.99;28.61;95747.72;5113482;28;20426;-55
2023/03/19 09:47:57;;;;;;;0.33;0.23;;;;;;;22.49;28.83;95739.81;5113454;28;20420;-55
2023/03/19 09:50:28;;;;;;;0.47;0.27;;;;;;;22.89;28.39;95742.75;5113556;28;20441;-55
2023/03/19 09:53:02;;;;;;;2.50;0.40;;;;;;;22.87;29.93;95741.50;5113527;28;20474;-55
2023/03/19 09:55:41;;;;;;;0.83;0.53;;;;;;;23.13;29.93;95736.53;5113374;28;20856;-56
2023/03/19 09:58:14;;;;;;;0.40;0.40;;;;;;;22.87;30.11;95726.06;5112909;28;20459;-56
2023/03/19 10:00:46;;;;;;;3.23;0.30;;;;;;;22.79;29.36;95720.78;5112903;28;20789;-55
2023/03/19 10:03:32;;;;;;;0.50;0.50;;;;;;;23.52;29.50;95719.66;5112926;28;20424;-55
2023/03/19 10:06:15;;;;;;;0.40;0.30;;;;;;;23.32;28.63;95709.72;5113253;28;20551;-55
2023/03/19 10:09:12;;;;;;;0.40;0.30;;;;;;;24.50;28.36;95712.75;5112740;28;20432;-56
2023/03/19 10:11:51;;;;;;;0.30;0.20;;;;;;;24.29;27.99;95710.25;5112496;28;20985;-56
2023/03/19 10:15:03;;;;;;;2.00;0.97;;;;;;;23.27;29.31;95701.84;5112641;28;20921;-55
2023/03/19 10:17:34;;;;;;;1.30;0.70;;;;;;;22.87;29.57;95668.53;5112619;28;20428;-56
2023/03/19 10:20:08;;;;;;;0.40;0.40;;;;;;;23.14;30.07;95682.16;5113043;28;20466;-55
2023/03/19 10:22:40;;;;;;;0.50;0.50;;;;;;;22.94;29.35;95687.66;5112214;28;20511;-55
2023/03/19 10:25:12;;;;;;;0.40;0.40;;;;;;;24.81;29.00;95680.25;5112605;28;20442;-55
2023/03/19 10:27:41;;;;;;;0.60;0.60;;;;;;;22.57;29.87;95676.81;5112700;28;20442;-55
2023/03/19 10:30:15;;;;;;;1.00;1.00;;;;;;;24.16;28.23;95642.97;5112706;28;20497;-55
2023/03/19 10:32:46;;;;;;;0.50;0.40;;;;;;;25.40;26.79;95663.78;5112434;28;20422;-55
2023/03/19 10:35:21;;;;;;;0.60;0.53;;;;;;;24.99;27.16;95651.66;5112452;28;20435;-55
2023/03/19 10:37:50;;;;;;;0.40;0.33;;;;;;;26.20;25.75;95647.63;5112367;28;20447;-55
2023/03/19 10:40:24;;;;;;;0.40;0.30;;;;;;;25.21;26.34;95634.69;5112074;28;20474;-55
2023/03/19 10:43:07;;;;;;;0.43;0.30;;;;;;;25.80;26.14;95634.41;5112148;28;20444;-55
2023/03/19 10:45:36;;;;;;;0.57;0.40;;;;;;;27.10;25.69;95630.47;5112257;28;20432;-55
2023/03/19 10:48:12;;;;;;;0.43;0.37;;;;;;;26.89;25.09;95623.94;5112064;28;20412;-55
2023/03/19 10:50:50;;;;;;;1.70;0.47;;;;;;;26.78;25.53;95625.72;5111987;28;20489;-55
2023/03/19 10:53:32;;;;;;;2.30;0.30;;;;;;;28.35;25.34;95611.81;5111461;28;20911;-55
2023/03/19 10:56:03;;;;;;;1.13;1.03;;;;;;;26.87;24.91;95607.97;5111465;28;20415;-55
2023/03/19 10:58:34;;;;;;;0.90;0.57;;;;;;;24.08;26.86;95608.69;5111508;28;20456;-55
2023/03/19 11:01:06;;;;;;;0.60;0.50;;;;;;;25.29;27.26;95607.72;5111841;28;20447;-55
2023/03/19 11:03:36;;;;;;;0.40;0.27;;;;;;;25.70;26.95;95590.75;5111740;28;20463;-56
2023/03/19 11:06:17;;;;;;;3.90;0.50;;;;;;;26.18;27.02;95562.97;5111512;28;20943;-55
2023/03/19 11:08:55;;;;;;;0.40;0.30;;;;;;;24.99;27.38;95583.06;5112108;28;20808;-55
2023/03/19 11:11:25;;;;;;;0.77;0.77;;;;;;;25.16;26.89;95583.44;5111310;28;20460;-55
2023/03/19 11:13:53;;;;;;;0.60;0.40;;;;;;;25.11;28.32;95569.34;5111268;28;20416;-55
2023/03/19 11:16:22;;;;;;;0.63;0.50;;;;;;;25.32;26.22;95569.03;5111417;28;20424;-56
2023/03/19 11:18:50;;;;;;;4.47;0.43;;;;;;;24.23;27.00;95567.28;5111358;28;20463;-55
2023/03/19 11:21:28;;;;;;;0.40;0.30;;;;;;;25.92;25.95;95562.06;5111330;28;20416;-55
2023/03/19 11:24:01;;;;;;;0.40;0.30;;;;;;;26.67;26.30;95551.28;5111577;28;21003;-55
2023/03/19 11:26:31;;;;;;;0.60;0.30;;;;;;;25.99;25.87;95543.97;5111925;28;20447;-55
2023/03/19 11:29:04;;;;;;;0.40;0.30;;;;;;;25.32;26.65;95545.41;5111864;28;20416;-55
2023/03/19 11:31:41;;;;;;;0.40;0.30;;;;;;;26.29;29.02;95542.19;5111741;28;20424;-55
2023/03/19 11:34:24;;;;;;;1.23;0.50;;;;;;;26.87;25.80;95526.38;5111752;28;20422;-55
2023/03/19 11:37:04;;;;;;;0.50;0.30;;;;;;;26.67;25.71;95524.09;5111920;28;20501;-55
2023/03/19 11:39:41;;;;;;;0.70;0.50;;;;;;;26.24;25.65;95512.59;5112043;28;20467;-55
2023/03/19 11:42:34;;;;;;;0.53;0.43;;;;;;;26.60;25.54;95504.97;5111616;28;20938;-55
2023/03/19 11:45:16;;;;;;;0.50;0.50;;;;;;;24.66;26.88;95504.84;5111621;28;20437;-55
2023/03/19 11:47:57;;;;;;;0.60;0.60;;;;;;;26.00;27.08;95499.38;5111482;28;20446;-55
2023/03/19 11:50:29;;;;;;;0.93;0.40;;;;;;;27.45;24.84;95498.75;5111944;28;20443;-56
2023/03/19 11:53:11;;;;;;;1.20;0.80;;;;;;;25.91;25.78;95508.91;5111784;28;20477;-56